Time;durP1;ratioP1;P1;durP2;ratioP2;P2;SDS_P1;SDS_P2;PMS_P1;PMS_P2;Temp;Humidity;BMP_temperature;BMP_pressure;BME280_temperature;BME280_humidity;BME280_pressure;Samples;Min_cycle;Max_cycle;Signal;HPM_P1;HPM_P2
2023/10/21 00:02:10;;;;;;;0.85;0.30;;;15.20;99.90;;;;;;4922179;29;20108;-72
2023/10/21 00:04:35;;;;;;;4.03;0.52;;;15.10;99.90;;;;;;4916164;29;20472;-72
2023/10/21 00:07:01;;;;;;;1.45;0.75;;;15.10;99.90;;;;;;4915089;29;20036;-72
2023/10/21 00:09:27;;;;;;;0.22;0.15;;;15.10;99.90;;;;;;4914605;29;20429;-72
2023/10/21 00:11:52;;;;;;;1.15;0.40;;;15.00;99.90;;;;;;4916047;29;20124;-72
2023/10/21 00:14:18;;;;;;;0.47;0.32;;;15.00;99.90;;;;;;4916197;29;20099;-72
2023/10/21 00:16:44;;;;;;;6.57;0.50;;;15.10;99.90;;;;;;4912883;29;20072;-72
2023/10/21 00:19:13;;;;;;;1.13;0.80;;;15.10;99.90;;;;;;4922219;29;20080;-71
2023/10/21 00:21:39;;;;;;;1.35;0.38;;;15.10;99.90;;;;;;4914654;29;20055;-73
2023/10/21 00:24:06;;;;;;;0.82;0.40;;;15.20;99.90;;;;;;4915088;29;20036;-72
2023/10/21 00:26:49;;;;;;;0.65;0.17;;;15.30;99.90;;;;;;4912726;29;20059;-73
2023/10/21 00:29:17;;;;;;;0.38;0.20;;;15.30;99.90;;;;;;4915584;29;20392;-72
2023/10/21 00:31:46;;;;;;;3.42;0.20;;;15.30;99.90;;;;;;4912710;29;20658;-71
2023/10/21 00:34:12;;;;;;;3.13;0.38;;;15.30;99.90;;;;;;4914608;29;20044;-71
2023/10/21 00:36:38;;;;;;;0.55;0.30;;;15.40;99.90;;;;;;4914120;29;20053;-71
2023/10/21 00:39:10;;;;;;;0.10;0.10;;;15.50;99.90;;;;;;4898255;29;20032;-71
2023/10/21 00:41:37;;;;;;;0.57;0.28;;;15.60;99.90;;;;;;4914684;29;20032;-70
2023/10/21 00:44:04;;;;;;;1.55;0.50;;;15.70;99.90;;;;;;4930197;29;20082;-71
2023/10/21 00:46:30;;;;;;;0.28;0.20;;;15.80;99.90;;;;;;4914795;29;20575;-72
2023/10/21 00:48:57;;;;;;;0.10;0.10;;;15.90;99.90;;;;;;4914149;29;20032;-71
2023/10/21 00:51:25;;;;;;;1.10;0.40;;;16.00;99.90;;;;;;4914336;29;20481;-71
2023/10/21 00:53:52;;;;;;;0.75;0.32;;;16.20;99.90;;;;;;4914251;29;20035;-71
2023/10/21 00:56:17;;;;;;;0.38;0.20;;;16.30;99.90;;;;;;4914278;29;20529;-71
2023/10/21 00:58:44;;;;;;;0.30;0.20;;;16.50;99.90;;;;;;4914153;29;20044;-72
2023/10/21 01:01:10;;;;;;;0.28;0.13;;;16.50;99.90;;;;;;4914671;29;20028;-72
2023/10/21 01:03:37;;;;;;;0.52;0.03;;;16.50;99.90;;;;;;4902006;29;20036;-72
2023/10/21 01:06:03;;;;;;;0.10;0.08;;;16.50;99.90;;;;;;4908324;29;20433;-72
2023/10/21 01:08:29;;;;;;;1.35;0.20;;;16.50;99.90;;;;;;4914865;29;20044;-73
2023/10/21 01:10:56;;;;;;;0.20;0.10;;;16.50;99.90;;;;;;4911642;29;20048;-72
2023/10/21 01:13:21;;;;;;;1.40;0.22;;;16.50;99.90;;;;;;4929753;29;20024;-72
2023/10/21 01:15:47;;;;;;;0.10;0.05;;;16.40;99.90;;;;;;4911841;29;20040;-72
2023/10/21 01:18:13;;;;;;;0.22;0.00;;;16.40;99.90;;;;;;4915059;29;20456;-72
2023/10/21 01:20:41;;;;;;;1.00;0.05;;;16.40;99.90;;;;;;4914229;29;20684;-72
2023/10/21 01:23:07;;;;;;;0.90;0.20;;;16.40;99.90;;;;;;4913798;29;20380;-72
2023/10/21 01:25:33;;;;;;;0.10;0.10;;;16.40;99.90;;;;;;4911916;29;20075;-72
2023/10/21 01:27:59;;;;;;;1.13;0.10;;;16.30;99.90;;;;;;4913456;29;20673;-72
2023/10/21 01:30:26;;;;;;;0.13;0.00;;;16.20;99.90;;;;;;4914055;29;20161;-72
2023/10/21 01:32:52;;;;;;;0.10;0.08;;;16.20;99.90;;;;;;4916500;29;20059;-72
2023/10/21 01:35:18;;;;;;;0.10;0.10;;;16.20;99.90;;;;;;4899614;29;20036;-71
2023/10/21 01:37:45;;;;;;;0.05;0.05;;;16.20;99.90;;;;;;4917443;29;20504;-71
2023/10/21 01:40:12;;;;;;;0.22;0.10;;;16.20;99.90;;;;;;4915284;29;20131;-71
2023/10/21 01:42:41;;;;;;;0.10;0.10;;;16.10;99.90;;;;;;4919188;29;20028;-71
2023/10/21 01:45:09;;;;;;;1.25;0.10;;;16.10;99.90;;;;;;4918063;29;20028;-71
2023/10/21 01:47:36;;;;;;;0.35;0.13;;;16.10;99.90;;;;;;4918254;29;20036;-71
2023/10/21 01:50:09;;;;;;;0.00;0.00;;;16.10;99.90;;;;;;4916740;29;20473;-71
2023/10/21 01:52:38;;;;;;;0.10;0.05;;;16.00;99.90;;;;;;4920422;29;20033;-71
2023/10/21 01:55:06;;;;;;;0.10;0.00;;;15.90;99.90;;;;;;4916595;29;20040;-72
2023/10/21 01:57:33;;;;;;;1.75;0.00;;;15.90;99.90;;;;;;4918282;29;20551;-72
2023/10/21 02:00:08;;;;;;;0.17;0.10;;;15.90;99.90;;;;;;4917618;29;20032;-71
2023/10/21 02:02:35;;;;;;;0.08;0.08;;;16.00;99.90;;;;;;4918400;29;20028;-72
2023/10/21 02:05:02;;;;;;;0.00;0.00;;;16.00;99.90;;;;;;4918597;29;20028;-72
2023/10/21 02:07:28;;;;;;;0.00;0.00;;;15.90;99.90;;;;;;4917602;29;20504;-72
2023/10/21 02:09:53;;;;;;;0.10;0.10;;;16.00;99.90;;;;;;4918770;29;20044;-71
2023/10/21 02:12:19;;;;;;;0.00;0.00;;;16.00;99.90;;;;;;4918564;29;20480;-72
2023/10/21 02:14:45;;;;;;;0.20;0.13;;;15.90;99.90;;;;;;4917889;29;20123;-71
2023/10/21 02:17:10;;;;;;;0.00;0.00;;;15.90;99.90;;;;;;4918156;29;20054;-71
2023/10/21 02:19:36;;;;;;;0.03;0.03;;;15.90;99.90;;;;;;4917668;29;20486;-71
2023/10/21 02:22:02;;;;;;;0.00;0.00;;;15.90;99.90;;;;;;4918170;29;20047;-69
2023/10/21 02:24:28;;;;;;;0.00;0.00;;;15.80;99.90;;;;;;4932446;29;20428;-71
2023/10/21 02:26:53;;;;;;;0.00;0.00;;;15.70;99.90;;;;;;4916300;29;20055;-71
2023/10/21 02:29:19;;;;;;;0.00;0.00;;;15.80;99.90;;;;;;4917700;29;20035;-72
2023/10/21 02:31:45;;;;;;;0.95;0.10;;;15.70;99.90;;;;;;4916776;29;20096;-72
2023/10/21 02:34:10;;;;;;;0.00;0.00;;;15.80;99.90;;;;;;4917745;29;20047;-71
2023/10/21 02:36:36;;;;;;;2.30;0.15;;;15.70;99.90;;;;;;4918732;29;20499;-72
2023/10/21 02:39:07;;;;;;;0.10;0.10;;;15.70;99.90;;;;;;4917424;29;20028;-72
2023/10/21 02:41:32;;;;;;;0.00;0.00;;;15.70;99.90;;;;;;4915442;29;20028;-72
2023/10/21 02:43:58;;;;;;;0.47;0.32;;;15.50;99.90;;;;;;4917362;29;20051;-72
2023/10/21 02:46:24;;;;;;;1.85;0.13;;;15.40;99.90;;;;;;4917663;29;20106;-73
2023/10/21 02:48:50;;;;;;;0.22;0.10;;;15.40;99.90;;;;;;4916126;29;20032;-72
2023/10/21 02:51:20;;;;;;;0.08;0.08;;;15.40;99.90;;;;;;4917298;29;20050;-71
2023/10/21 02:53:45;;;;;;;0.00;0.00;;;15.30;99.90;;;;;;4916204;29;20056;-72
2023/10/21 02:56:15;;;;;;;0.10;0.00;;;15.30;99.90;;;;;;4917096;29;20028;-72
2023/10/21 02:58:42;;;;;;;0.10;0.08;;;15.20;99.90;;;;;;4916070;29;20135;-72
2023/10/21 03:01:20;;;;;;;0.00;0.00;;;15.30;99.90;;;;;;4917466;29;20537;-72
2023/10/21 03:03:50;;;;;;;2.83;0.17;;;15.30;99.90;;;;;;4915332;29;20381;-72
2023/10/21 03:06:21;;;;;;;0.17;0.10;;;15.30;99.90;;;;;;4915693;29;20045;-72
2023/10/21 03:08:47;;;;;;;0.00;0.00;;;15.20;99.90;;;;;;4915363;29;20059;-72
2023/10/21 03:11:14;;;;;;;0.03;0.03;;;15.20;99.90;;;;;;4915791;29;20042;-71
2023/10/21 03:13:40;;;;;;;0.00;0.00;;;15.30;99.90;;;;;;4915417;29;20568;-72
2023/10/21 03:16:07;;;;;;;0.00;0.00;;;15.30;99.90;;;;;;4915596;29;20124;-71
2023/10/21 03:18:35;;;;;;;0.45;0.03;;;15.30;99.90;;;;;;4931009;29;20032;-72
2023/10/21 03:21:02;;;;;;;0.10;0.10;;;15.20;99.90;;;;;;4916305;29;20066;-72
2023/10/21 03:23:28;;;;;;;0.00;0.00;;;15.30;99.90;;;;;;4915562;29;20071;-72
2023/10/21 03:26:03;;;;;;;0.63;0.20;;;15.30;99.90;;;;;;4900160;29;20040;-72
2023/10/21 03:28:29;;;;;;;0.00;0.00;;;15.40;99.90;;;;;;4915421;29;20063;-72
2023/10/21 03:30:57;;;;;;;0.00;0.00;;;15.40;99.90;;;;;;4896835;29;20453;-72
2023/10/21 03:33:29;;;;;;;0.00;0.00;;;15.30;99.90;;;;;;4915505;29;20032;-73
2023/10/21 03:35:57;;;;;;;0.73;0.22;;;15.40;99.90;;;;;;4915229;29;20040;-72
2023/10/21 03:38:24;;;;;;;0.00;0.00;;;15.40;99.90;;;;;;4915000;29;20024;-72
2023/10/21 03:41:11;;;;;;;0.00;0.00;;;15.30;99.90;;;;;;4914900;29;20032;-72
2023/10/21 03:43:37;;;;;;;0.00;0.00;;;15.40;99.90;;;;;;4900143;29;20052;-72
2023/10/21 03:46:14;;;;;;;1.08;0.40;;;15.40;99.90;;;;;;4914929;29;20096;-72
2023/10/21 03:48:40;;;;;;;0.03;0.03;;;15.30;99.90;;;;;;4914901;29;20119;-72
2023/10/21 03:51:10;;;;;;;0.00;0.00;;;15.40;99.90;;;;;;4913727;29;20063;-72
2023/10/21 03:53:36;;;;;;;0.25;0.08;;;15.30;99.90;;;;;;4899191;29;20130;-72
2023/10/21 03:56:02;;;;;;;0.98;0.10;;;15.30;99.90;;;;;;4914202;29;20076;-72
2023/10/21 03:58:29;;;;;;;0.20;0.15;;;15.40;99.90;;;;;;4915731;29;20915;-72
2023/10/21 04:00:57;;;;;;;0.45;0.15;;;15.40;99.90;;;;;;4914271;29;20402;-73
2023/10/21 04:03:26;;;;;;;0.38;0.10;;;15.40;99.90;;;;;;4914888;29;20020;-71
2023/10/21 04:05:56;;;;;;;0.00;0.00;;;15.40;99.90;;;;;;4911755;29;20044;-72
2023/10/21 04:08:23;;;;;;;0.77;0.43;;;15.40;99.90;;;;;;4914283;29;20115;-72
2023/10/21 04:10:49;;;;;;;0.10;0.05;;;15.30;99.90;;;;;;4896301;29;20063;-72
2023/10/21 04:13:16;;;;;;;1.52;0.10;;;15.30;99.90;;;;;;4916079;29;20194;-72
2023/10/21 04:15:42;;;;;;;0.93;0.22;;;15.30;99.90;;;;;;4912001;29;20048;-71
2023/10/21 04:18:08;;;;;;;1.35;0.15;;;15.20;99.90;;;;;;4913811;29;20063;-71
2023/10/21 04:20:34;;;;;;;0.47;0.10;;;15.20;99.90;;;;;;4915585;29;20089;-72
2023/10/21 04:23:00;;;;;;;0.10;0.10;;;15.20;99.90;;;;;;4915555;29;20028;-72
2023/10/21 04:25:28;;;;;;;0.17;0.17;;;15.20;99.90;;;;;;4912102;29;20040;-72
2023/10/21 04:27:57;;;;;;;0.00;0.00;;;15.20;99.90;;;;;;4913779;29;20392;-72
2023/10/21 04:30:24;;;;;;;0.10;0.10;;;15.10;99.90;;;;;;4915454;29;20038;-72
2023/10/21 04:32:51;;;;;;;0.05;0.05;;;15.10;99.90;;;;;;4915236;29;20137;-72
2023/10/21 04:35:18;;;;;;;1.38;0.30;;;15.20;99.90;;;;;;4913921;29;20040;-72
2023/10/21 04:37:44;;;;;;;0.10;0.10;;;15.20;99.90;;;;;;4949991;23;20044;-68
2023/10/21 04:40:11;;;;;;;0.15;0.10;;;15.20;99.90;;;;;;4932252;29;20028;-68
2023/10/21 04:42:38;;;;;;;0.00;0.00;;;15.20;99.90;;;;;;4933794;29;20649;-68
2023/10/21 04:45:07;;;;;;;0.68;0.20;;;15.20;99.90;;;;;;4933820;29;20070;-68
2023/10/21 04:47:33;;;;;;;1.10;0.13;;;15.20;99.90;;;;;;4933339;29;20047;-68
2023/10/21 04:49:58;;;;;;;0.20;0.10;;;15.20;99.90;;;;;;4933789;29;20579;-68
2023/10/21 04:52:24;;;;;;;0.10;0.10;;;15.10;99.90;;;;;;4933642;29;20043;-68
2023/10/21 04:54:50;;;;;;;1.63;0.17;;;15.10;99.90;;;;;;4933822;29;20087;-68
2023/10/21 04:57:16;;;;;;;0.32;0.10;;;15.10;99.90;;;;;;4933311;29;20123;-68
2023/10/21 04:59:43;;;;;;;0.30;0.20;;;15.10;99.90;;;;;;4933357;29;20087;-68
2023/10/21 05:02:08;;;;;;;0.38;0.10;;;15.10;99.90;;;;;;4926518;29;20143;-68
2023/10/21 05:04:35;;;;;;;0.10;0.10;;;15.20;99.90;;;;;;4932506;29;20114;-68
2023/10/21 05:07:02;;;;;;;0.13;0.13;;;15.20;99.90;;;;;;4931873;29;20044;-68
2023/10/21 05:09:28;;;;;;;0.10;0.10;;;15.20;99.90;;;;;;4932107;29;20353;-68
2023/10/21 05:11:54;;;;;;;0.10;0.10;;;15.40;99.90;;;;;;4926624;29;20036;-69
2023/10/21 05:14:20;;;;;;;1.30;0.47;;;15.40;99.90;;;;;;4932398;29;20076;-72
2023/10/21 05:16:46;;;;;;;0.40;0.40;;;15.40;99.90;;;;;;4932937;29;20445;-71
2023/10/21 05:19:12;;;;;;;0.38;0.10;;;15.40;99.90;;;;;;4931887;29;20032;-70
2023/10/21 05:21:38;;;;;;;0.15;0.10;;;15.40;99.90;;;;;;4926981;29;20031;-70
2023/10/21 05:24:04;;;;;;;0.10;0.05;;;15.50;99.90;;;;;;4939819;29;20059;-73
2023/10/21 05:26:29;;;;;;;0.32;0.20;;;15.40;99.90;;;;;;4933547;29;20040;-73
2023/10/21 05:28:57;;;;;;;0.68;0.15;;;15.50;99.90;;;;;;4932691;29;20522;-73
2023/10/21 05:31:24;;;;;;;0.28;0.28;;;15.40;99.90;;;;;;4932242;29;20034;-73
2023/10/21 05:33:50;;;;;;;0.00;0.00;;;15.40;99.90;;;;;;4932880;29;20035;-73
2023/10/21 05:36:16;;;;;;;0.10;0.08;;;15.40;99.90;;;;;;4931873;29;20549;-73
2023/10/21 05:38:42;;;;;;;1.02;0.45;;;15.30;99.90;;;;;;4931342;29;20086;-73
2023/10/21 05:41:07;;;;;;;0.03;0.03;;;15.20;99.90;;;;;;4929663;29;20024;-76
2023/10/21 05:43:33;;;;;;;0.10;0.10;;;15.20;99.90;;;;;;4931424;29;20067;-74
2023/10/21 05:46:03;;;;;;;0.10;0.08;;;15.30;99.90;;;;;;4942517;29;20332;-74
2023/10/21 05:48:29;;;;;;;0.17;0.17;;;15.20;99.90;;;;;;4933184;29;20047;-74
2023/10/21 05:51:00;;;;;;;1.10;0.65;;;15.20;99.90;;;;;;4938439;29;20139;-74
2023/10/21 05:53:26;;;;;;;0.00;0.00;;;15.20;99.90;;;;;;4940747;29;20062;-74
2023/10/21 05:55:55;;;;;;;0.10;0.10;;;15.20;99.90;;;;;;4952179;28;20429;-74
2023/10/21 05:58:21;;;;;;;0.45;0.15;;;15.10;99.90;;;;;;4942877;29;20031;-72
2023/10/21 06:00:47;;;;;;;0.52;0.20;;;15.10;99.90;;;;;;4936897;29;20032;-77
2023/10/21 06:03:13;;;;;;;0.32;0.20;;;15.10;99.90;;;;;;4949405;29;20062;-74
2023/10/21 06:05:39;;;;;;;1.02;0.30;;;15.20;99.90;;;;;;4952350;28;20034;-75
2023/10/21 06:08:07;;;;;;;0.20;0.10;;;15.10;99.90;;;;;;4941343;28;20035;-75
2023/10/21 06:10:32;;;;;;;0.10;0.10;;;15.10;99.90;;;;;;4945767;29;20043;-74
2023/10/21 06:12:58;;;;;;;0.00;0.00;;;15.20;99.90;;;;;;4941478;29;20035;-73
2023/10/21 06:15:24;;;;;;;0.28;0.20;;;15.20;99.90;;;;;;4952132;28;20369;-74
2023/10/21 06:17:49;;;;;;;0.45;0.25;;;15.20;99.90;;;;;;4950599;28;20039;-75
2023/10/21 06:20:15;;;;;;;0.00;0.00;;;15.10;99.90;;;;;;4956184;28;20031;-73
2023/10/21 06:22:41;;;;;;;0.20;0.05;;;15.10;99.90;;;;;;4951465;29;20043;-72
2023/10/21 06:25:08;;;;;;;0.52;0.32;;;15.20;99.90;;;;;;4952814;28;20027;-72
2023/10/21 06:27:33;;;;;;;0.15;0.10;;;15.10;99.90;;;;;;4947248;29;20138;-73
2023/10/21 06:29:59;;;;;;;0.00;0.00;;;15.10;99.90;;;;;;4952178;29;20143;-73
2023/10/21 06:32:26;;;;;;;0.10;0.00;;;15.00;99.90;;;;;;4952183;28;20039;-73
2023/10/21 06:34:52;;;;;;;0.08;0.08;;;15.00;99.90;;;;;;4947330;28;20042;-73
2023/10/21 06:37:17;;;;;;;0.05;0.05;;;14.90;99.90;;;;;;4952200;28;20391;-72
2023/10/21 06:39:43;;;;;;;0.05;0.05;;;15.00;99.90;;;;;;4942910;29;20032;-73
2023/10/21 06:42:09;;;;;;;0.55;0.15;;;14.90;99.90;;;;;;4941657;29;20045;-73
2023/10/21 06:44:36;;;;;;;0.65;0.10;;;15.00;99.90;;;;;;4922841;29;20055;-72
2023/10/21 06:47:02;;;;;;;1.67;0.20;;;14.90;99.90;;;;;;4934882;29;20028;-74
2023/10/21 06:49:27;;;;;;;0.40;0.20;;;15.00;99.90;;;;;;4938469;29;20035;-73
2023/10/21 06:51:55;;;;;;;0.00;0.00;;;15.00;99.90;;;;;;4939796;29;20032;-73
2023/10/21 06:54:21;;;;;;;1.02;0.35;;;15.10;99.90;;;;;;4951184;28;20023;-73
2023/10/21 06:56:47;;;;;;;0.00;0.00;;;15.10;99.90;;;;;;4948268;29;20397;-72
2023/10/21 06:59:13;;;;;;;0.68;0.25;;;15.20;99.90;;;;;;4954212;29;20030;-72
2023/10/21 07:01:40;;;;;;;4.45;0.13;;;15.20;99.90;;;;;;4942000;29;20503;-72
2023/10/21 07:04:10;;;;;;;1.85;0.57;;;15.20;99.90;;;;;;4943423;29;20066;-71
2023/10/21 07:06:39;;;;;;;0.75;0.45;;;15.20;99.90;;;;;;4946983;29;20053;-72
2023/10/21 07:09:06;;;;;;;0.05;0.05;;;15.20;99.90;;;;;;4941997;29;20032;-72
2023/10/21 07:11:33;;;;;;;0.93;0.13;;;15.20;99.90;;;;;;4940203;29;20035;-67
2023/10/21 07:13:59;;;;;;;0.45;0.20;;;15.00;99.90;;;;;;4952211;29;20038;-67
2023/10/21 07:16:25;;;;;;;0.00;0.00;;;14.90;99.90;;;;;;4954272;28;20023;-67
2023/10/21 07:18:50;;;;;;;0.22;0.20;;;14.80;99.90;;;;;;4947373;29;20028;-67
2023/10/21 07:21:16;;;;;;;0.10;0.10;;;14.70;99.90;;;;;;4953642;28;20035;-67
2023/10/21 07:23:42;;;;;;;3.72;0.10;;;14.70;99.90;;;;;;4943831;28;20040;-67
2023/10/21 07:26:08;;;;;;;0.00;0.00;;;14.60;99.90;;;;;;4952667;29;20479;-67
2023/10/21 07:28:34;;;;;;;0.65;0.22;;;14.60;99.90;;;;;;4936706;28;20039;-67
2023/10/21 07:31:00;;;;;;;0.30;0.10;;;14.60;99.90;;;;;;4950486;29;20035;-67
2023/10/21 07:33:27;;;;;;;1.15;0.60;;;14.60;99.90;;;;;;4949640;29;20051;-67
2023/10/21 07:35:53;;;;;;;0.00;0.00;;;14.60;99.90;;;;;;4953729;28;20038;-67
2023/10/21 07:38:20;;;;;;;0.10;0.10;;;14.60;99.90;;;;;;4942747;28;20035;-67
2023/10/21 07:40:47;;;;;;;0.03;0.03;;;14.70;99.90;;;;;;4936943;29;20536;-67
2023/10/21 07:43:17;;;;;;;0.00;0.00;;;14.80;99.90;;;;;;4941317;29;20035;-68
2023/10/21 07:45:44;;;;;;;0.08;0.03;;;14.90;99.90;;;;;;4934479;29;20551;-68
2023/10/21 07:48:10;;;;;;;1.55;0.28;;;14.90;99.90;;;;;;4939433;29;20047;-68
2023/10/21 07:50:37;;;;;;;0.00;0.00;;;15.00;99.90;;;;;;4948799;29;20578;-68
2023/10/21 07:53:07;;;;;;;0.00;0.00;;;15.10;99.90;;;;;;4949478;29;20034;-68
2023/10/21 07:55:34;;;;;;;0.00;0.00;;;15.10;99.90;;;;;;4940896;29;20028;-68
2023/10/21 07:58:00;;;;;;;0.40;0.30;;;15.20;99.90;;;;;;4933767;29;20036;-68
2023/10/21 08:00:28;;;;;;;0.68;0.40;;;15.20;99.90;;;;;;4941038;29;20055;-67
2023/10/21 08:02:54;;;;;;;0.10;0.10;;;15.20;99.90;;;;;;4939235;29;20378;-67
2023/10/21 08:05:21;;;;;;;0.17;0.10;;;15.20;99.90;;;;;;4946318;29;20070;-68
2023/10/21 08:07:47;;;;;;;0.10;0.10;;;15.30;99.90;;;;;;4950118;28;20126;-68
2023/10/21 08:10:13;;;;;;;0.70;0.17;;;15.30;99.90;;;;;;4952516;28;20451;-67
2023/10/21 08:12:39;;;;;;;0.70;0.25;;;15.40;99.90;;;;;;4945647;29;20059;-68
2023/10/21 08:15:09;;;;;;;0.00;0.00;;;15.40;99.90;;;;;;4945461;28;20687;-68
2023/10/21 08:17:35;;;;;;;1.38;0.47;;;15.40;99.90;;;;;;4944077;28;20116;-68
2023/10/21 08:20:02;;;;;;;0.68;0.10;;;15.50;99.90;;;;;;4951415;29;20380;-68
2023/10/21 08:22:28;;;;;;;0.20;0.10;;;15.50;99.90;;;;;;4945183;28;20053;-68
2023/10/21 08:24:54;;;;;;;0.00;0.00;;;15.60;99.90;;;;;;4950555;29;20038;-67
2023/10/21 08:27:20;;;;;;;0.88;0.32;;;15.70;99.90;;;;;;4946138;28;20032;-67
2023/10/21 08:29:47;;;;;;;0.93;0.30;;;15.70;99.90;;;;;;4933829;29;20500;-68
2023/10/21 08:32:13;;;;;;;0.15;0.15;;;15.80;99.90;;;;;;4945284;29;20044;-69
2023/10/21 08:34:38;;;;;;;2.10;0.20;;;15.80;99.90;;;;;;4941811;29;20046;-69
2023/10/21 08:37:05;;;;;;;0.17;0.15;;;15.80;99.90;;;;;;4940038;29;20078;-68
2023/10/21 08:39:30;;;;;;;0.05;0.05;;;15.80;99.90;;;;;;4947371;28;20027;-66
2023/10/21 08:41:58;;;;;;;0.20;0.10;;;15.80;99.90;;;;;;4940948;29;20382;-66
2023/10/21 08:44:24;;;;;;;0.55;0.17;;;15.80;99.90;;;;;;4951785;29;20077;-69
2023/10/21 08:46:54;;;;;;;1.75;0.32;;;15.90;99.90;;;;;;4948590;29;20046;-69
2023/10/21 08:49:20;;;;;;;2.17;0.10;;;16.00;99.90;;;;;;4940233;29;20039;-66
2023/10/21 08:51:47;;;;;;;0.10;0.10;;;16.00;99.90;;;;;;4941063;29;20023;-66
2023/10/21 08:54:16;;;;;;;1.05;0.10;;;16.00;99.90;;;;;;4944627;29;20035;-66
2023/10/21 08:56:42;;;;;;;0.20;0.10;;;16.00;99.90;;;;;;4941781;29;20032;-73
2023/10/21 08:59:08;;;;;;;0.77;0.13;;;16.10;99.90;;;;;;4936442;29;20074;-71
2023/10/21 09:01:38;;;;;;;0.35;0.10;;;16.30;99.90;;;;;;4943647;28;20027;-73
2023/10/21 09:04:05;;;;;;;0.30;0.00;;;16.40;99.90;;;;;;4948460;28;20072;-72
2023/10/21 09:06:31;;;;;;;0.20;0.10;;;16.40;99.90;;;;;;4937905;29;20034;-69
2023/10/21 09:08:56;;;;;;;1.08;0.15;;;16.60;99.90;;;;;;4937381;29;20039;-72
2023/10/21 09:11:29;;;;;;;0.10;0.10;;;16.60;99.90;;;;;;4938471;29;20055;-72
2023/10/21 09:13:59;;;;;;;0.10;0.10;;;16.70;99.90;;;;;;4938105;29;20024;-72
2023/10/21 09:16:27;;;;;;;0.90;0.52;;;16.50;99.90;;;;;;4936937;29;20027;-72
2023/10/21 09:18:59;;;;;;;0.45;0.40;;;16.50;99.90;;;;;;4930980;29;20064;-71
2023/10/21 09:21:40;;;;;;;1.35;0.38;;;16.40;99.90;;;;;;4937941;29;20050;-72
2023/10/21 09:24:30;;;;;;;3.70;0.28;;;16.40;99.90;;;;;;4933111;29;20036;-71
2023/10/21 09:26:55;;;;;;;3.63;0.30;;;16.30;99.90;;;;;;4932705;29;20062;-71
2023/10/21 09:29:22;;;;;;;4.88;0.40;;;16.40;99.90;;;;;;4931479;29;20484;-69
2023/10/21 09:31:56;;;;;;;1.45;0.22;;;16.70;99.90;;;;;;4932911;29;20032;-70
2023/10/21 09:34:26;;;;;;;0.32;0.20;;;16.80;99.90;;;;;;4931910;29;20031;-74
2023/10/21 09:36:57;;;;;;;1.25;0.45;;;16.70;99.90;;;;;;4930860;29;20039;-70
2023/10/21 09:39:29;;;;;;;0.40;0.20;;;16.80;99.90;;;;;;4931729;29;20027;-70
2023/10/21 09:41:58;;;;;;;0.52;0.20;;;16.90;99.90;;;;;;4931543;29;20353;-70
2023/10/21 09:44:25;;;;;;;0.35;0.22;;;16.80;99.90;;;;;;4931383;29;20016;-70
2023/10/21 09:46:54;;;;;;;3.25;0.85;;;16.70;99.90;;;;;;4931067;29;20130;-71
2023/10/21 09:49:22;;;;;;;0.03;0.03;;;16.50;99.90;;;;;;4939380;28;20035;-70
2023/10/21 09:52:05;;;;;;;2.30;0.52;;;16.60;99.90;;;;;;4932377;29;20028;-71
2023/10/21 09:55:07;;;;;;;5.38;0.40;;;16.60;99.90;;;;;;4936731;29;20395;-71
2023/10/21 09:57:38;;;;;;;2.40;0.25;;;16.60;99.90;;;;;;4928717;29;20063;-72
2023/10/21 10:00:08;;;;;;;;;;;16.70;99.90;;;;;;4951685;29;20133;-73
2023/10/21 10:02:38;;;;;;;0.57;0.20;;;16.90;99.90;;;;;;4950386;29;19925;-72
2023/10/21 10:05:09;;;;;;;5.13;0.40;;;17.10;99.90;;;;;;4942125;29;20039;-72
2023/10/21 10:07:39;;;;;;;1.65;0.68;;;17.20;99.90;;;;;;4955353;28;20050;-72
2023/10/21 10:10:07;;;;;;;2.90;0.73;;;17.20;99.90;;;;;;4948975;29;20027;-71
2023/10/21 10:12:40;;;;;;;0.22;0.20;;;17.30;99.90;;;;;;4934550;29;20089;-71
2023/10/21 10:15:39;;;;;;;0.10;0.10;;;17.80;99.90;;;;;;4946415;29;20084;-71
2023/10/21 10:18:19;;;;;;;0.00;0.00;;;18.30;99.90;;;;;;4957576;28;20054;-72
2023/10/21 10:20:48;;;;;;;1.45;0.10;;;18.60;99.90;;;;;;4942413;29;20814;-72
2023/10/21 10:23:14;;;;;;;3.33;0.30;;;18.80;99.90;;;;;;4947324;28;20031;-72
2023/10/21 10:25:51;;;;;;;2.00;0.20;;;19.00;99.90;;;;;;4944242;29;20028;-72
2023/10/21 10:28:27;;;;;;;1.65;0.10;;;19.10;99.90;;;;;;4943515;29;20039;-71
2023/10/21 10:30:56;;;;;;;0.77;0.35;;;19.10;99.90;;;;;;4953587;28;20069;-72
2023/10/21 10:33:31;;;;;;;0.55;0.20;;;19.30;99.70;;;;;;4937376;29;20035;-72
2023/10/21 10:36:00;;;;;;;0.30;0.10;;;19.50;99.20;;;;;;4949884;29;20043;-71
2023/10/21 10:38:32;;;;;;;4.28;0.20;;;19.70;97.70;;;;;;4940857;29;20040;-72
2023/10/21 10:41:15;;;;;;;1.13;0.93;;;19.60;99.60;;;;;;4933724;29;20035;-72
2023/10/21 10:44:01;;;;;;;0.10;0.10;;;20.30;96.50;;;;;;4948861;29;20161;-72
2023/10/21 10:46:28;;;;;;;0.13;0.03;;;20.30;97.80;;;;;;4952226;29;20039;-72
2023/10/21 10:48:54;;;;;;;0.35;0.22;;;22.20;93.20;;;;;;4941124;29;20031;-72
2023/10/21 10:51:27;;;;;;;8.65;0.52;;;22.70;90.30;;;;;;4953437;28;20019;-72
2023/10/21 10:53:56;;;;;;;3.60;0.28;;;22.60;84.20;;;;;;4934968;29;20038;-72
2023/10/21 10:56:25;;;;;;;0.15;0.10;;;22.10;87.70;;;;;;4941417;28;20039;-72
2023/10/21 10:58:52;;;;;;;1.75;0.20;;;20.60;94.50;;;;;;4947764;29;20031;-72
2023/10/21 11:01:27;;;;;;;1.55;0.17;;;19.70;97.00;;;;;;4952101;29;20138;-72
2023/10/21 11:04:00;;;;;;;0.10;0.10;;;19.40;98.50;;;;;;4945617;28;20491;-72
2023/10/21 11:06:39;;;;;;;0.25;0.10;;;18.60;99.90;;;;;;4951712;29;20085;-72
2023/10/21 11:09:16;;;;;;;1.17;0.30;;;18.20;99.90;;;;;;4942801;29;20043;-72
2023/10/21 11:11:54;;;;;;;0.00;0.00;;;17.70;99.90;;;;;;4943585;29;20118;-72
2023/10/21 11:14:20;;;;;;;2.58;0.57;;;17.60;99.90;;;;;;4926235;29;20107;-71
2023/10/21 11:16:49;;;;;;;0.28;0.08;;;17.40;99.90;;;;;;4943524;29;20575;-71
2023/10/21 11:19:15;;;;;;;0.15;0.10;;;17.30;99.90;;;;;;4947480;29;20039;-71
2023/10/21 11:21:48;;;;;;;1.02;0.10;;;17.20;99.90;;;;;;4938139;29;20038;-72
2023/10/21 11:24:15;;;;;;;1.67;0.57;;;17.40;99.90;;;;;;4936425;29;20019;-72
2023/10/21 11:26:42;;;;;;;1.00;0.13;;;17.40;99.90;;;;;;4949612;29;20102;-72
2023/10/21 11:29:08;;;;;;;2.08;0.40;;;17.60;99.90;;;;;;4947362;29;20043;-72
2023/10/21 11:31:37;;;;;;;13.15;0.60;;;17.60;99.90;;;;;;4945787;29;20387;-72
2023/10/21 11:34:19;;;;;;;1.70;0.70;;;17.60;99.90;;;;;;4939220;29;20050;-72
2023/10/21 11:36:48;;;;;;;0.65;0.20;;;18.40;99.90;;;;;;4936319;28;20361;-71
2023/10/21 11:39:19;;;;;;;3.75;0.45;;;19.60;98.50;;;;;;4932151;29;20031;-72
2023/10/21 11:41:54;;;;;;;0.63;0.25;;;19.50;97.50;;;;;;4943263;29;20118;-72
2023/10/21 11:44:31;;;;;;;0.28;0.20;;;19.30;98.70;;;;;;4940900;29;20023;-72
2023/10/21 11:46:59;;;;;;;0.20;0.08;;;20.60;94.80;;;;;;4947558;29;20518;-72
2023/10/21 11:49:25;;;;;;;0.68;0.20;;;22.00;92.70;;;;;;4943845;28;20054;-72
2023/10/21 11:51:54;;;;;;;0.30;0.00;;;23.40;81.60;;;;;;4942956;29;20636;-72
2023/10/21 11:54:39;;;;;;;2.42;0.20;;;22.60;79.90;;;;;;4936848;29;20069;-72
2023/10/21 12:23:51;;;;;;;1.27;0.32;;;23.40;72.30;;;;;;4937281;29;20020;-73
2023/10/21 12:26:50;;;;;;;0.65;0.20;;;24.00;71.90;;;;;;4936420;29;20132;-73
2023/10/21 12:40:59;;;;;;;0.52;0.38;;;22.10;71.90;;;;;;4945457;28;20066;-73
2023/10/21 12:45:46;;;;;;;0.20;0.10;;;21.70;74.60;;;;;;4932501;29;20110;-74
2023/10/21 12:48:21;;;;;;;0.30;0.10;;;20.80;78.80;;;;;;4936703;29;20028;-72
2023/10/21 12:50:52;;;;;;;0.65;0.25;;;21.40;78.70;;;;;;4948038;29;20126;-73
2023/10/21 12:53:18;;;;;;;2.05;0.20;;;21.00;80.10;;;;;;4936454;29;20064;-73
2023/10/21 12:55:44;;;;;;;0.35;0.10;;;21.50;81.30;;;;;;4939265;29;20035;-73
2023/10/21 12:58:10;;;;;;;1.10;0.50;;;22.70;73.90;;;;;;4943051;29;20443;-74
2023/10/21 13:00:37;;;;;;;3.10;0.20;;;21.30;77.80;;;;;;4952653;28;20043;-73
2023/10/21 13:03:10;;;;;;;0.45;0.10;;;21.80;75.20;;;;;;4947226;29;20031;-74
2023/10/21 13:05:37;;;;;;;2.92;0.68;;;21.90;78.20;;;;;;4953089;28;20027;-72
2023/10/21 13:08:07;;;;;;;17.23;3.17;;;22.50;75.90;;;;;;4947939;28;20031;-73
2023/10/21 13:10:34;;;;;;;4.07;1.17;;;22.50;72.90;;;;;;4942788;28;20063;-73
2023/10/21 13:13:03;;;;;;;7.35;1.73;;;21.60;74.70;;;;;;4940577;29;20035;-75
2023/10/21 13:15:32;;;;;;;3.70;0.90;;;21.80;73.90;;;;;;4946961;29;20031;-73
2023/10/21 13:17:58;;;;;;;0.88;0.35;;;21.90;73.90;;;;;;4932923;29;20143;-74
2023/10/21 13:20:24;;;;;;;7.47;0.75;;;21.70;77.50;;;;;;4953966;28;20158;-74
2023/10/21 13:22:54;;;;;;;3.40;1.08;;;21.70;77.10;;;;;;4945212;29;20109;-76
2023/10/21 13:25:20;;;;;;;4.25;0.47;;;21.20;75.30;;;;;;4945496;29;20035;-76
2023/10/21 13:27:46;;;;;;;1.52;0.22;;;21.10;77.70;;;;;;4944122;28;20500;-77
2023/10/21 13:30:16;;;;;;;0.43;0.10;;;21.90;73.60;;;;;;4946946;29;20047;-74
2023/10/21 13:32:43;;;;;;;0.22;0.20;;;22.00;73.10;;;;;;4953429;28;20031;-74
2023/10/21 13:35:12;;;;;;;0.25;0.10;;;22.10;73.20;;;;;;4957364;28;20053;-73